Time;durP1;ratioP1;P1;durP2;ratioP2;P2;SDS_P1;SDS_P2;PMS_P1;PMS_P2;Temp;Humidity;BMP_temperature;BMP_pressure;BME280_temperature;BME280_humidity;BME280_pressure;Samples;Min_cycle;Max_cycle;Signal;HPM_P1;HPM_P2
2023/07/15 00:00:15;;;;;;;4.57;2.10;;;23.10;80.90;;;;;;5050235;28;20187;-68
2023/07/15 00:02:42;;;;;;;8.95;2.47;;;23.10;80.20;;;;;;5048885;28;20451;-69
2023/07/15 00:05:16;;;;;;;5.57;2.40;;;23.10;80.30;;;;;;5050133;28;20074;-69
2023/07/15 00:07:42;;;;;;;7.13;2.40;;;23.10;80.10;;;;;;5050344;28;20048;-69
2023/07/15 00:10:08;;;;;;;8.85;2.53;;;23.00;80.70;;;;;;5050180;28;20479;-69
2023/07/15 00:12:33;;;;;;;6.30;2.78;;;23.00;80.30;;;;;;5049918;28;20541;-69
2023/07/15 00:14:59;;;;;;;6.03;2.33;;;23.00;80.10;;;;;;5049978;28;20071;-69
2023/07/15 00:17:25;;;;;;;5.97;2.47;;;23.00;79.00;;;;;;5048728;28;20105;-69
2023/07/15 00:19:51;;;;;;;5.85;2.00;;;23.00;79.90;;;;;;5050053;28;20021;-69
2023/07/15 00:22:16;;;;;;;8.30;2.60;;;23.00;79.60;;;;;;5049911;28;20339;-68
2023/07/15 00:24:42;;;;;;;5.40;2.33;;;23.00;79.90;;;;;;5049961;28;20033;-69
2023/07/15 00:27:08;;;;;;;7.28;2.35;;;23.00;78.90;;;;;;5049430;28;20045;-69
2023/07/15 00:29:34;;;;;;;7.15;2.25;;;23.00;77.10;;;;;;5050061;28;20100;-69
2023/07/15 00:32:04;;;;;;;9.73;2.50;;;23.00;78.60;;;;;;5048240;28;20463;-68
2023/07/15 00:34:30;;;;;;;6.30;2.08;;;23.00;79.20;;;;;;5049856;28;20028;-69
2023/07/15 00:36:56;;;;;;;5.97;1.95;;;22.90;77.00;;;;;;5050194;28;20475;-69
2023/07/15 00:39:21;;;;;;;4.60;2.15;;;23.00;77.20;;;;;;5049593;28;20502;-69
2023/07/15 00:41:47;;;;;;;5.25;1.98;;;23.00;78.70;;;;;;5050144;28;20527;-69
2023/07/15 00:44:15;;;;;;;3.65;1.80;;;23.00;77.70;;;;;;5049834;28;20029;-69
2023/07/15 00:46:53;;;;;;;8.10;2.45;;;23.00;77.80;;;;;;5049225;28;20025;-69
2023/07/15 00:49:20;;;;;;;7.80;2.47;;;23.00;76.80;;;;;;5049476;28;20021;-69
2023/07/15 00:51:48;;;;;;;5.43;2.17;;;23.00;78.90;;;;;;5049566;28;20044;-69
2023/07/15 00:54:14;;;;;;;5.53;1.80;;;23.00;76.60;;;;;;5048461;28;20047;-69
2023/07/15 00:56:42;;;;;;;3.67;1.80;;;23.00;77.70;;;;;;5049147;28;20546;-69
2023/07/15 00:59:11;;;;;;;6.72;2.05;;;23.00;76.90;;;;;;5048994;28;20032;-69
2023/07/15 01:01:37;;;;;;;7.53;2.55;;;23.00;77.60;;;;;;5049196;28;20816;-69
2023/07/15 01:04:02;;;;;;;6.28;2.70;;;23.00;77.80;;;;;;5049146;28;20028;-68
2023/07/15 01:06:28;;;;;;;8.35;2.47;;;23.00;74.70;;;;;;5049018;28;20021;-69
2023/07/15 01:08:54;;;;;;;5.00;2.05;;;23.00;73.80;;;;;;5049271;28;20112;-69
2023/07/15 01:11:20;;;;;;;7.28;1.90;;;23.00;75.50;;;;;;5048993;28;20037;-69
2023/07/15 01:13:47;;;;;;;5.60;2.00;;;23.10;76.00;;;;;;5049497;28;20107;-70
2023/07/15 01:16:13;;;;;;;5.60;2.05;;;23.10;77.20;;;;;;5048153;28;20016;-69
2023/07/15 01:18:39;;;;;;;9.98;2.90;;;23.20;78.30;;;;;;5049202;28;20155;-67
2023/07/15 01:21:05;;;;;;;7.63;2.10;;;23.20;75.70;;;;;;5047407;28;20025;-69
2023/07/15 01:23:31;;;;;;;6.28;2.08;;;23.20;75.30;;;;;;5049096;28;20028;-69
2023/07/15 01:25:57;;;;;;;7.68;2.42;;;23.30;73.20;;;;;;5048630;28;20053;-69
2023/07/15 01:28:23;;;;;;;5.68;1.88;;;23.30;72.40;;;;;;5048592;28;20025;-68
2023/07/15 01:30:48;;;;;;;7.20;2.35;;;23.30;75.10;;;;;;5048716;28;20440;-69
2023/07/15 01:33:15;;;;;;;5.30;1.95;;;23.30;74.20;;;;;;5048791;28;20017;-68
2023/07/15 01:35:45;;;;;;;5.15;1.63;;;23.40;73.50;;;;;;5047910;28;20037;-69
2023/07/15 01:38:11;;;;;;;3.40;1.77;;;23.40;72.10;;;;;;5049227;28;20114;-69
2023/07/15 01:40:36;;;;;;;5.43;1.95;;;23.50;75.40;;;;;;5049381;28;20115;-69
2023/07/15 01:43:04;;;;;;;5.20;2.22;;;23.50;74.90;;;;;;5049102;28;20032;-70
2023/07/15 01:45:32;;;;;;;4.35;2.03;;;23.50;73.10;;;;;;5048737;28;20031;-70
2023/07/15 01:47:58;;;;;;;6.32;1.95;;;23.50;73.80;;;;;;5048850;28;20021;-70
2023/07/15 01:50:24;;;;;;;5.35;1.98;;;23.60;73.30;;;;;;5048381;28;20021;-71
2023/07/15 01:52:49;;;;;;;6.35;1.80;;;23.60;72.00;;;;;;5048736;28;20029;-70
2023/07/15 01:55:15;;;;;;;5.90;1.58;;;23.60;72.50;;;;;;5048914;28;20112;-71
2023/07/15 01:57:41;;;;;;;6.25;2.10;;;23.60;70.00;;;;;;5048800;28;20024;-71
2023/07/15 02:00:08;;;;;;;5.93;2.25;;;23.70;73.80;;;;;;5048587;28;20036;-70
2023/07/15 02:02:34;;;;;;;3.63;1.60;;;23.70;70.50;;;;;;5048704;28;20425;-71
2023/07/15 02:05:01;;;;;;;4.07;1.75;;;23.70;70.90;;;;;;5049300;28;20040;-70
2023/07/15 02:07:27;;;;;;;7.97;2.00;;;23.70;70.50;;;;;;5048519;28;20103;-70
2023/07/15 02:09:52;;;;;;;4.20;1.75;;;23.70;69.20;;;;;;5049011;28;20471;-70
2023/07/15 02:12:18;;;;;;;7.07;2.03;;;23.70;69.70;;;;;;5048665;28;20067;-70
2023/07/15 02:14:44;;;;;;;7.75;1.80;;;23.70;70.30;;;;;;5049173;28;20135;-68
2023/07/15 02:17:09;;;;;;;6.00;1.88;;;23.70;70.70;;;;;;5047686;28;20067;-71
2023/07/15 02:19:35;;;;;;;7.20;1.88;;;23.70;70.40;;;;;;5048751;28;20075;-69
2023/07/15 02:22:00;;;;;;;2.88;1.45;;;23.70;70.00;;;;;;5048371;28;20040;-69
2023/07/15 02:24:26;;;;;;;5.15;2.13;;;23.70;71.30;;;;;;5048550;28;20060;-70
2023/07/15 02:26:52;;;;;;;4.53;1.70;;;23.70;70.50;;;;;;5048844;28;20045;-70
2023/07/15 02:29:18;;;;;;;3.35;1.60;;;23.60;71.40;;;;;;5048566;28;20090;-70
2023/07/15 02:31:44;;;;;;;5.65;2.08;;;23.60;69.70;;;;;;5048019;28;20045;-70
2023/07/15 02:34:10;;;;;;;4.40;1.80;;;23.60;70.90;;;;;;5048658;28;20395;-69
2023/07/15 02:36:36;;;;;;;4.93;1.70;;;23.50;70.20;;;;;;5048330;28;20236;-69
2023/07/15 02:39:04;;;;;;;5.65;1.67;;;23.50;71.80;;;;;;5047489;28;20126;-69
2023/07/15 02:44:05;;;;;;;5.15;2.03;;;23.40;70.10;;;;;;4658798;23;20184;-71
2023/07/15 02:46:31;;;;;;;6.43;1.80;;;23.40;70.90;;;;;;5012433;28;20182;-69
2023/07/15 02:48:56;;;;;;;4.32;1.70;;;23.30;70.50;;;;;;5012235;28;20072;-70
2023/07/15 02:51:23;;;;;;;4.40;1.67;;;23.30;70.70;;;;;;5012467;28;20097;-69
2023/07/15 02:53:50;;;;;;;7.78;1.90;;;23.30;71.10;;;;;;5011672;28;20030;-69
2023/07/15 02:56:15;;;;;;;4.70;1.50;;;23.20;70.50;;;;;;5012293;28;20483;-69
2023/07/15 02:58:41;;;;;;;4.85;1.73;;;23.20;70.70;;;;;;5012285;28;20033;-70
2023/07/15 03:01:08;;;;;;;5.10;1.75;;;23.20;71.30;;;;;;5011406;28;20080;-70
2023/07/15 03:03:33;;;;;;;3.70;1.70;;;23.10;70.60;;;;;;5011850;28;20029;-70
2023/07/15 03:06:00;;;;;;;4.30;1.48;;;23.10;70.60;;;;;;5011432;28;20056;-71
2023/07/15 03:08:25;;;;;;;3.85;1.55;;;23.10;70.50;;;;;;5011441;28;20080;-71
2023/07/15 03:10:51;;;;;;;6.60;2.22;;;23.10;71.30;;;;;;5011836;28;20033;-68
2023/07/15 03:13:17;;;;;;;3.58;1.70;;;23.00;71.10;;;;;;5011908;28;20451;-70
2023/07/15 03:15:43;;;;;;;6.13;1.92;;;23.00;70.60;;;;;;5011081;28;20025;-70
2023/07/15 03:18:08;;;;;;;5.70;2.50;;;22.90;70.90;;;;;;5011610;28;20058;-69
2023/07/15 03:20:35;;;;;;;4.95;1.80;;;22.90;70.90;;;;;;5011433;28;20057;-69
2023/07/15 03:23:00;;;;;;;5.95;1.67;;;22.80;70.80;;;;;;5011343;28;20046;-69
2023/07/15 03:25:26;;;;;;;5.28;1.85;;;22.80;70.90;;;;;;5011216;28;20124;-70
2023/07/15 03:27:51;;;;;;;6.35;2.15;;;22.80;71.00;;;;;;5011113;28;20029;-70
2023/07/15 03:30:18;;;;;;;4.28;1.63;;;22.80;71.10;;;;;;4993281;28;20523;-69
2023/07/15 03:32:45;;;;;;;4.97;2.10;;;22.80;71.30;;;;;;5010832;28;20017;-70
2023/07/15 03:35:12;;;;;;;9.73;2.17;;;22.80;71.40;;;;;;5011286;28;20030;-69
2023/07/15 03:37:40;;;;;;;4.32;2.13;;;22.80;71.50;;;;;;5011293;28;20049;-69
2023/07/15 03:40:10;;;;;;;6.30;1.98;;;22.70;71.60;;;;;;5010700;28;20077;-69
2023/07/15 03:42:39;;;;;;;6.25;1.98;;;22.70;71.70;;;;;;5017375;28;20022;-69
2023/07/15 03:45:06;;;;;;;6.70;2.20;;;22.70;72.10;;;;;;5030460;28;20049;-70
2023/07/15 03:47:34;;;;;;;5.80;2.05;;;22.70;72.10;;;;;;5030678;28;20029;-70
2023/07/15 03:50:01;;;;;;;6.25;2.13;;;22.60;72.00;;;;;;5030050;28;20025;-69
2023/07/15 03:52:26;;;;;;;5.65;1.83;;;22.60;72.00;;;;;;5030723;28;20037;-69
2023/07/15 03:54:52;;;;;;;4.90;2.28;;;22.60;72.10;;;;;;5030775;28;20368;-69
2023/07/15 03:57:18;;;;;;;4.60;1.88;;;22.50;72.40;;;;;;5030719;28;20514;-69
2023/07/15 03:59:43;;;;;;;3.90;1.77;;;22.50;72.50;;;;;;5030680;28;20021;-69
2023/07/15 04:02:09;;;;;;;4.97;1.98;;;22.50;72.50;;;;;;5030491;28;20112;-69
2023/07/15 04:04:34;;;;;;;4.95;2.03;;;22.50;72.60;;;;;;5030247;28;20112;-69
2023/07/15 04:07:01;;;;;;;5.32;1.95;;;22.40;72.90;;;;;;5030452;28;20487;-69
2023/07/15 04:09:27;;;;;;;6.13;2.00;;;22.40;72.70;;;;;;5030659;28;20481;-69
2023/07/15 04:11:53;;;;;;;3.53;1.65;;;22.40;73.00;;;;;;5030216;28;20037;-69
2023/07/15 04:14:18;;;;;;;6.28;2.35;;;22.40;73.10;;;;;;5030121;28;20249;-69
2023/07/15 04:16:44;;;;;;;4.97;2.30;;;22.40;73.30;;;;;;5030015;28;20127;-69
2023/07/15 04:19:10;;;;;;;4.15;1.92;;;22.40;73.80;;;;;;5030040;28;20022;-69
2023/07/15 04:21:38;;;;;;;5.30;2.08;;;22.40;73.50;;;;;;5030225;28;20048;-69
2023/07/15 04:24:04;;;;;;;5.13;2.05;;;22.40;74.00;;;;;;5030069;28;20109;-69
2023/07/15 04:26:29;;;;;;;4.88;1.95;;;22.40;74.40;;;;;;5029859;28;20171;-69
2023/07/15 04:28:55;;;;;;;3.50;1.83;;;22.40;74.50;;;;;;5029447;28;20120;-69
2023/07/15 04:31:21;;;;;;;6.20;2.13;;;22.40;74.40;;;;;;5029733;28;20037;-70
2023/07/15 04:33:48;;;;;;;4.82;1.92;;;22.40;73.90;;;;;;5029718;28;20032;-69
2023/07/15 04:36:15;;;;;;;6.65;2.53;;;22.40;74.10;;;;;;5029299;28;20025;-68
2023/07/15 04:38:41;;;;;;;4.32;2.20;;;22.40;74.00;;;;;;5029994;28;20394;-69
2023/07/15 04:41:07;;;;;;;4.47;1.80;;;22.40;74.40;;;;;;5029256;28;20026;-69
2023/07/15 04:43:33;;;;;;;5.18;1.83;;;22.50;74.90;;;;;;5029607;28;20451;-69
2023/07/15 04:45:59;;;;;;;5.78;2.00;;;22.50;74.90;;;;;;5029683;28;20128;-69
2023/07/15 04:48:25;;;;;;;4.07;1.83;;;22.50;75.10;;;;;;5028905;28;20030;-69
2023/07/15 04:50:51;;;;;;;5.43;2.28;;;22.50;75.00;;;;;;5029437;28;20045;-69
2023/07/15 04:53:17;;;;;;;7.15;1.70;;;22.60;76.60;;;;;;5011857;28;20025;-70
2023/07/15 04:55:44;;;;;;;6.25;2.38;;;22.60;76.00;;;;;;5029432;28;20064;-69
2023/07/15 04:58:11;;;;;;;4.03;1.85;;;22.60;75.70;;;;;;5029884;28;20177;-70
2023/07/15 05:00:37;;;;;;;6.55;2.28;;;22.60;75.60;;;;;;5029679;28;20033;-69
2023/07/15 05:03:06;;;;;;;5.43;2.00;;;22.70;76.70;;;;;;5028333;28;20040;-68
2023/07/15 05:05:32;;;;;;;4.85;2.03;;;22.80;76.40;;;;;;5029264;28;20025;-70
2023/07/15 05:08:12;;;;;;;5.22;2.47;;;22.80;76.70;;;;;;5029468;28;20040;-70
2023/07/15 05:10:41;;;;;;;4.97;2.13;;;22.90;77.70;;;;;;5028974;28;20029;-70
2023/07/15 05:13:07;;;;;;;4.85;2.50;;;22.90;77.20;;;;;;5029384;28;20109;-70
2023/07/15 05:15:33;;;;;;;5.50;2.08;;;22.90;76.40;;;;;;5029341;28;20080;-69
2023/07/15 05:18:00;;;;;;;9.30;2.55;;;23.00;76.70;;;;;;5029172;28;20493;-69
2023/07/15 05:20:26;;;;;;;4.40;2.05;;;23.00;76.40;;;;;;5029320;28;20112;-70
2023/07/15 05:22:51;;;;;;;5.85;2.00;;;23.00;76.10;;;;;;5011552;28;20183;-70
2023/07/15 05:25:17;;;;;;;5.68;2.08;;;23.00;76.40;;;;;;5028906;28;20026;-70
2023/07/15 05:27:43;;;;;;;5.25;2.22;;;23.00;76.40;;;;;;5028570;28;20446;-71
2023/07/15 05:30:09;;;;;;;4.82;1.83;;;23.10;76.40;;;;;;5028778;28;20053;-70
2023/07/15 05:32:36;;;;;;;3.95;1.55;;;23.10;76.30;;;;;;5029055;28;20442;-70
2023/07/15 05:35:02;;;;;;;5.38;2.20;;;23.20;76.40;;;;;;5028575;28;20036;-69
2023/07/15 05:37:28;;;;;;;5.13;2.42;;;23.30;76.50;;;;;;5029141;28;20017;-69
2023/07/15 05:39:53;;;;;;;4.40;2.13;;;23.40;76.30;;;;;;5028641;28;20025;-71
2023/07/15 05:42:19;;;;;;;4.70;1.88;;;23.40;76.20;;;;;;5010518;28;20040;-70
2023/07/15 05:44:45;;;;;;;5.70;2.55;;;23.50;76.40;;;;;;5028472;28;20050;-70
2023/07/15 05:47:11;;;;;;;9.98;3.40;;;23.50;76.60;;;;;;5029226;28;20025;-70
2023/07/15 05:49:39;;;;;;;5.85;2.00;;;23.60;76.70;;;;;;5028655;28;20068;-71
2023/07/15 05:52:05;;;;;;;5.72;2.17;;;23.60;76.70;;;;;;5028234;28;20033;-70
2023/07/15 05:54:30;;;;;;;5.40;2.20;;;23.60;76.90;;;;;;5028704;28;20048;-69
2023/07/15 05:56:56;;;;;;;4.90;1.55;;;23.60;77.00;;;;;;5028452;28;20483;-69
2023/07/15 05:59:24;;;;;;;6.47;2.00;;;23.70;76.80;;;;;;5028547;28;20136;-70
2023/07/15 06:01:50;;;;;;;4.38;2.13;;;23.80;76.90;;;;;;5028549;28;20017;-68
2023/07/15 06:04:16;;;;;;;3.75;1.70;;;23.80;77.10;;;;;;5028892;28;20017;-67
2023/07/15 06:06:41;;;;;;;3.72;1.75;;;23.90;77.20;;;;;;5028847;28;20018;-70
2023/07/15 06:09:07;;;;;;;3.25;1.60;;;24.00;77.20;;;;;;5028405;28;20026;-68
2023/07/15 06:11:33;;;;;;;4.28;1.75;;;24.10;77.20;;;;;;5028451;28;20037;-68
2023/07/15 06:14:03;;;;;;;3.45;1.60;;;24.20;77.40;;;;;;5028301;28;20037;-68
2023/07/15 06:16:29;;;;;;;3.45;1.45;;;24.20;77.40;;;;;;5032355;28;20111;-69
2023/07/15 06:18:54;;;;;;;4.30;1.70;;;24.30;77.30;;;;;;5032513;28;20044;-70
2023/07/15 06:21:20;;;;;;;4.57;1.80;;;24.40;77.30;;;;;;5032326;28;20375;-68
2023/07/15 06:23:46;;;;;;;3.05;1.50;;;24.40;77.20;;;;;;5032215;28;20033;-69
2023/07/15 06:26:12;;;;;;;5.45;2.10;;;24.50;77.20;;;;;;5032026;28;20025;-69
2023/07/15 06:28:39;;;;;;;3.13;1.60;;;24.60;77.90;;;;;;5032254;28;20022;-69
2023/07/15 06:31:08;;;;;;;3.13;1.33;;;24.60;77.10;;;;;;5031693;28;20502;-70
2023/07/15 06:33:35;;;;;;;3.25;1.35;;;24.70;77.00;;;;;;5024494;28;20095;-69
2023/07/15 06:36:02;;;;;;;3.20;1.63;;;24.80;77.10;;;;;;5032591;28;20073;-70
2023/07/15 06:38:28;;;;;;;5.05;1.50;;;24.80;77.20;;;;;;5032278;28;20036;-70
2023/07/15 06:40:54;;;;;;;6.43;2.60;;;24.80;77.20;;;;;;5031869;28;20093;-68
2023/07/15 06:43:19;;;;;;;5.15;2.08;;;24.80;76.90;;;;;;5031348;28;20056;-67
2023/07/15 06:45:45;;;;;;;3.95;1.80;;;24.80;77.20;;;;;;5031786;28;20017;-67
2023/07/15 06:48:17;;;;;;;6.10;1.75;;;24.90;77.00;;;;;;5031836;28;20112;-73
2023/07/15 06:50:42;;;;;;;4.65;1.58;;;24.90;77.00;;;;;;5031784;28;20510;-69
2023/07/15 06:53:08;;;;;;;7.22;2.42;;;24.90;76.80;;;;;;5031631;28;20037;-69
2023/07/15 06:55:34;;;;;;;5.15;2.00;;;24.80;77.20;;;;;;5032096;28;20032;-71
2023/07/15 06:58:01;;;;;;;3.45;1.70;;;24.80;77.00;;;;;;5031304;28;20029;-68
2023/07/15 07:00:27;;;;;;;4.88;2.15;;;24.90;77.10;;;;;;5031399;28;20068;-69
2023/07/15 07:02:53;;;;;;;4.13;1.80;;;24.90;76.70;;;;;;5031863;28;20057;-69
2023/07/15 07:05:19;;;;;;;4.32;2.03;;;25.00;77.70;;;;;;5031620;28;20026;-68
2023/07/15 07:07:45;;;;;;;3.47;1.60;;;24.90;78.90;;;;;;5031677;28;20026;-69
2023/07/15 07:10:11;;;;;;;2.58;1.58;;;25.00;78.70;;;;;;5031457;28;20021;-69
2023/07/15 07:12:37;;;;;;;5.95;2.13;;;25.10;79.10;;;;;;5031560;28;20018;-69
2023/07/15 07:15:03;;;;;;;3.40;1.70;;;25.10;80.50;;;;;;5031536;28;20116;-69
2023/07/15 07:17:29;;;;;;;4.50;1.88;;;25.10;79.90;;;;;;5031389;28;20079;-70
2023/07/15 07:19:55;;;;;;;6.28;1.58;;;25.20;79.00;;;;;;5013618;28;20501;-68
2023/07/15 07:22:20;;;;;;;3.22;1.27;;;25.30;78.40;;;;;;5031377;28;20057;-70
2023/07/15 07:24:47;;;;;;;4.15;2.13;;;25.40;78.20;;;;;;5030640;28;20023;-69
2023/07/15 07:27:12;;;;;;;2.95;1.42;;;25.50;80.40;;;;;;5031263;28;20013;-70
2023/07/15 07:29:39;;;;;;;4.70;1.58;;;25.60;80.10;;;;;;5031115;28;20041;-69
2023/07/15 07:32:07;;;;;;;2.67;1.00;;;25.70;79.30;;;;;;5031075;28;20046;-71
2023/07/15 07:34:33;;;;;;;3.25;1.40;;;25.80;79.30;;;;;;5022922;28;20083;-68
2023/07/15 07:36:59;;;;;;;2.78;1.40;;;25.80;79.30;;;;;;5030814;28;20021;-68
2023/07/15 07:39:24;;;;;;;3.58;1.20;;;25.90;79.50;;;;;;5031692;28;20104;-68
2023/07/15 07:41:50;;;;;;;3.83;1.33;;;26.00;79.40;;;;;;5030988;28;20017;-70
2023/07/15 07:44:16;;;;;;;3.92;1.63;;;26.10;79.00;;;;;;5029131;28;20052;-69
2023/07/15 07:46:41;;;;;;;4.55;1.58;;;26.10;78.80;;;;;;5029335;28;20466;-68
2023/07/15 07:49:07;;;;;;;7.93;1.95;;;26.20;79.60;;;;;;5029025;28;20497;-70
2023/07/15 07:51:33;;;;;;;4.47;1.98;;;26.20;79.80;;;;;;5029290;28;20068;-70
2023/07/15 07:53:58;;;;;;;5.55;1.65;;;26.30;78.60;;;;;;5029026;28;20025;-69
2023/07/15 07:56:27;;;;;;;3.80;1.33;;;26.50;77.50;;;;;;5029859;28;20022;-70
2023/07/15 07:58:58;;;;;;;3.50;1.30;;;26.50;76.00;;;;;;5030376;28;20025;-70
2023/07/15 08:01:24;;;;;;;3.95;1.45;;;26.60;75.70;;;;;;5030796;28;20760;-68
2023/07/15 08:03:54;;;;;;;5.15;1.73;;;26.60;76.40;;;;;;5028790;28;20036;-69
2023/07/15 08:06:21;;;;;;;3.95;1.60;;;26.50;76.20;;;;;;5028777;28;20047;-68
2023/07/15 08:08:46;;;;;;;4.85;1.55;;;26.50;76.50;;;;;;5028698;28;20411;-70
2023/07/15 08:11:12;;;;;;;3.97;1.50;;;26.40;76.40;;;;;;5028197;28;20052;-70
2023/07/15 08:13:37;;;;;;;3.97;1.90;;;26.30;76.70;;;;;;5028620;28;20160;-68
2023/07/15 08:16:03;;;;;;;7.25;2.00;;;26.20;76.70;;;;;;5028373;28;20525;-69
2023/07/15 08:18:29;;;;;;;2.90;1.20;;;26.30;76.70;;;;;;5028324;28;20105;-69
2023/07/15 08:20:55;;;;;;;5.45;1.67;;;26.40;76.80;;;;;;5028675;28;20056;-69
2023/07/15 08:23:20;;;;;;;4.68;1.70;;;26.60;76.80;;;;;;5029342;28;20104;-70
2023/07/15 08:25:46;;;;;;;4.35;1.52;;;26.80;76.40;;;;;;5029283;28;20049;-69
2023/07/15 08:28:12;;;;;;;3.92;1.38;;;26.80;75.70;;;;;;5029149;28;20018;-68
2023/07/15 08:30:37;;;;;;;3.47;1.33;;;26.80;76.00;;;;;;5029855;28;20034;-71
2023/07/15 08:33:04;;;;;;;4.07;1.33;;;26.80;76.40;;;;;;5029537;28;20033;-70
2023/07/15 08:35:32;;;;;;;2.92;1.17;;;26.80;76.60;;;;;;5029802;28;20065;-70
2023/07/15 08:37:57;;;;;;;4.47;1.35;;;26.60;77.10;;;;;;5029049;28;20506;-70
2023/07/15 08:40:25;;;;;;;3.40;1.27;;;26.60;77.20;;;;;;5029376;28;20056;-70
2023/07/15 08:42:51;;;;;;;4.43;1.05;;;26.60;77.40;;;;;;5029581;28;20382;-70
2023/07/15 08:45:17;;;;;;;3.03;1.25;;;26.50;77.80;;;;;;5029764;28;20052;-70
2023/07/15 08:47:44;;;;;;;3.05;1.10;;;26.50;77.70;;;;;;5029550;28;20536;-70
2023/07/15 08:50:17;;;;;;;2.90;0.90;;;26.50;77.90;;;;;;5029798;28;20359;-70
2023/07/15 08:52:44;;;;;;;1.92;0.85;;;26.50;78.00;;;;;;5029561;28;20033;-70
2023/07/15 08:55:11;;;;;;;2.22;0.82;;;26.50;78.20;;;;;;5029595;28;20022;-69
2023/07/15 08:57:37;;;;;;;1.40;0.63;;;26.60;78.20;;;;;;5029765;28;20017;-70
2023/07/15 09:00:10;;;;;;;3.83;0.90;;;26.60;78.20;;;;;;5029120;28;20052;-70
2023/07/15 09:02:37;;;;;;;1.92;0.90;;;26.60;78.20;;;;;;5029382;28;20057;-69
2023/07/15 09:05:08;;;;;;;3.33;1.42;;;26.70;78.30;;;;;;5029258;28;20029;-70
2023/07/15 09:07:43;;;;;;;3.00;0.80;;;26.80;78.00;;;;;;5029768;28;20040;-69
2023/07/15 09:10:13;;;;;;;2.03;0.98;;;26.70;78.00;;;;;;5029511;28;20021;-69
2023/07/15 09:12:44;;;;;;;2.13;0.90;;;26.70;78.10;;;;;;5029250;28;20025;-70
2023/07/15 09:15:12;;;;;;;2.25;0.90;;;26.70;78.00;;;;;;5029237;28;20044;-69
2023/07/15 09:17:38;;;;;;;2.97;1.10;;;26.70;77.80;;;;;;5028651;28;20386;-70
2023/07/15 09:20:16;;;;;;;3.13;1.00;;;26.60;77.90;;;;;;5028817;28;20034;-70
2023/07/15 09:22:42;;;;;;;3.03;1.05;;;26.60;78.10;;;;;;5028657;28;20061;-71
2023/07/15 09:25:10;;;;;;;4.75;1.48;;;26.60;78.10;;;;;;5028761;28;20049;-70
2023/07/15 09:27:41;;;;;;;1.75;0.90;;;26.50;77.70;;;;;;5029330;28;20104;-71
2023/07/15 09:30:09;;;;;;;2.70;1.02;;;26.50;77.80;;;;;;5028932;28;20048;-69
2023/07/15 09:32:35;;;;;;;4.63;1.23;;;26.50;77.90;;;;;;5011231;28;20061;-71
2023/07/15 09:35:01;;;;;;;3.58;1.10;;;26.50;77.90;;;;;;5028601;28;20036;-69
2023/07/15 09:37:33;;;;;;;1.90;1.08;;;26.40;78.00;;;;;;5029053;28;20176;-69
2023/07/15 09:40:07;;;;;;;2.25;1.08;;;26.30;78.40;;;;;;5028472;28;20037;-69
2023/07/15 09:42:53;;;;;;;4.63;1.15;;;26.20;78.40;;;;;;5020763;28;20064;-71
2023/07/15 09:45:30;;;;;;;3.17;1.10;;;26.10;78.90;;;;;;5028471;28;20069;-70
2023/07/15 09:47:56;;;;;;;4.60;1.25;;;26.00;79.30;;;;;;5028565;28;20041;-69
2023/07/15 09:50:23;;;;;;;2.22;0.88;;;25.90;79.50;;;;;;5032812;28;20033;-70
2023/07/15 09:52:53;;;;;;;3.50;1.23;;;25.90;79.70;;;;;;5033327;28;20142;-70
2023/07/15 09:55:18;;;;;;;4.63;1.42;;;25.90;80.00;;;;;;5032645;28;20029;-69
2023/07/15 09:57:45;;;;;;;3.22;1.08;;;26.00;80.20;;;;;;5032983;28;20085;-72
2023/07/15 10:00:14;;;;;;;3.67;1.40;;;26.00;80.20;;;;;;5033609;28;20391;-70
2023/07/15 10:02:42;;;;;;;4.03;1.40;;;26.10;79.40;;;;;;5033521;28;20021;-70
2023/07/15 10:05:13;;;;;;;3.38;1.58;;;26.20;79.60;;;;;;5032889;28;20025;-70
2023/07/15 10:07:42;;;;;;;3.83;1.20;;;26.20;79.00;;;;;;5015413;28;20052;-70
2023/07/15 10:10:08;;;;;;;4.70;1.55;;;26.30;78.90;;;;;;5032619;28;20040;-68
2023/07/15 10:12:35;;;;;;;5.35;1.92;;;26.30;79.00;;;;;;5015330;28;20030;-71
2023/07/15 10:15:01;;;;;;;2.60;1.10;;;26.30;79.20;;;;;;5033065;28;20029;-70
2023/07/15 10:17:37;;;;;;;4.05;1.20;;;26.20;79.40;;;;;;5032613;28;20033;-73
2023/07/15 10:20:13;;;;;;;4.55;1.70;;;26.10;79.70;;;;;;5032701;28;20025;-71
2023/07/15 10:22:40;;;;;;;6.40;1.23;;;26.00;80.00;;;;;;5032924;28;20025;-69
2023/07/15 10:25:11;;;;;;;3.05;1.25;;;26.00;80.20;;;;;;5031709;28;20104;-70
2023/07/15 10:27:37;;;;;;;2.53;1.17;;;25.90;80.70;;;;;;5031006;28;20075;-69
2023/07/15 10:30:19;;;;;;;5.57;1.55;;;25.90;80.80;;;;;;5032142;28;20094;-69
2023/07/15 10:33:08;;;;;;;4.13;1.25;;;26.00;80.60;;;;;;5032210;28;20079;-70
2023/07/15 10:35:40;;;;;;;2.63;1.30;;;25.90;80.00;;;;;;5019729;28;20834;-68
2023/07/15 10:38:37;;;;;;;4.18;1.27;;;25.90;79.90;;;;;;5032516;28;20673;-70
2023/07/15 10:41:04;;;;;;;4.32;1.60;;;25.90;80.00;;;;;;5032525;28;20828;-68
2023/07/15 10:43:37;;;;;;;4.95;1.50;;;25.80;79.20;;;;;;5032533;28;20386;-69
2023/07/15 10:46:16;;;;;;;4.47;1.20;;;25.70;79.50;;;;;;5032011;28;20077;-69
2023/07/15 10:48:42;;;;;;;6.53;2.05;;;25.70;80.00;;;;;;5032124;28;20378;-69
2023/07/15 10:51:09;;;;;;;7.18;1.88;;;25.70;79.90;;;;;;5032227;28;20025;-69
2023/07/15 10:53:36;;;;;;;6.03;1.80;;;25.70;80.00;;;;;;5014108;28;20041;-69
2023/07/15 10:56:11;;;;;;;4.60;1.40;;;25.70;79.60;;;;;;5031707;28;20483;-70
2023/07/15 10:58:37;;;;;;;6.32;1.77;;;25.70;80.40;;;;;;5032385;28;20029;-68
2023/07/15 11:01:11;;;;;;;7.65;1.40;;;25.50;80.40;;;;;;5030494;28;20075;-68
2023/07/15 11:03:39;;;;;;;4.70;1.60;;;25.50;81.20;;;;;;5031566;28;20022;-70
2023/07/15 11:06:05;;;;;;;6.35;1.60;;;25.50;82.40;;;;;;5031633;28;20102;-70
2023/07/15 11:08:31;;;;;;;4.95;1.52;;;25.50;81.40;;;;;;5031679;28;20064;-68
2023/07/15 11:10:58;;;;;;;5.45;1.55;;;25.50;82.60;;;;;;5031109;28;20072;-70
2023/07/15 11:13:27;;;;;;;11.52;2.10;;;25.50;83.40;;;;;;5031999;28;20039;-69
2023/07/15 11:15:53;;;;;;;5.30;1.70;;;25.50;82.30;;;;;;5031163;28;20022;-70
2023/07/15 11:18:20;;;;;;;4.38;1.55;;;25.50;82.40;;;;;;5031843;28;20054;-70
2023/07/15 11:20:47;;;;;;;6.90;2.20;;;25.50;82.10;;;;;;5031655;28;20095;-69
2023/07/15 11:23:14;;;;;;;3.10;1.55;;;25.50;82.50;;;;;;5031580;28;20022;-69
2023/07/15 11:25:40;;;;;;;4.15;1.88;;;25.50;81.50;;;;;;5031731;28;20044;-70
2023/07/15 11:28:06;;;;;;;4.35;1.70;;;25.50;81.00;;;;;;5030998;28;20033;-71
2023/07/15 11:30:39;;;;;;;3.88;1.52;;;25.60;81.50;;;;;;5013367;28;20026;-70
2023/07/15 11:33:05;;;;;;;4.53;1.63;;;25.80;80.60;;;;;;5031037;28;20089;-70
2023/07/15 11:35:35;;;;;;;5.00;1.90;;;25.90;79.50;;;;;;5030987;28;20030;-68
2023/07/15 11:38:11;;;;;;;;;;;25.80;79.50;;;;;;5031333;28;20045;-69
2023/07/15 11:40:58;;;;;;;6.05;2.35;;;25.80;80.10;;;;;;5031128;28;20417;-69
2023/07/15 11:43:26;;;;;;;3.90;1.75;;;25.70;79.50;;;;;;5030588;28;20045;-70
2023/07/15 11:45:55;;;;;;;4.25;1.38;;;25.70;80.30;;;;;;5031021;28;20478;-71
2023/07/15 11:48:26;;;;;;;3.58;1.52;;;25.70;79.60;;;;;;5031313;28;20043;-71
2023/07/15 11:50:56;;;;;;;5.35;1.63;;;25.60;79.00;;;;;;5030916;28;20032;-70
2023/07/15 11:53:35;;;;;;;4.32;1.85;;;25.70;80.40;;;;;;5030793;28;20022;-71
2023/07/15 11:56:01;;;;;;;4.38;1.70;;;25.60;78.70;;;;;;5030611;28;20368;-71
2023/07/15 11:58:41;;;;;;;5.25;1.35;;;25.60;80.00;;;;;;5031003;28;20029;-71
2023/07/15 12:01:17;;;;;;;3.47;1.67;;;25.60;80.50;;;;;;5030933;28;20044;-72
2023/07/15 12:03:44;;;;;;;5.15;1.60;;;25.70;79.50;;;;;;5030344;28;20021;-69
2023/07/15 12:06:17;;;;;;;4.95;1.50;;;25.90;79.00;;;;;;5031044;28;20055;-70
2023/07/15 12:08:57;;;;;;;2.75;1.23;;;26.00;78.80;;;;;;5013334;28;20436;-70
2023/07/15 12:11:23;;;;;;;5.75;1.60;;;26.10;78.60;;;;;;5030334;28;20048;-68
2023/07/15 12:13:49;;;;;;;3.60;1.30;;;26.30;77.80;;;;;;5030327;28;20025;-69
2023/07/15 12:16:17;;;;;;;3.85;1.67;;;26.30;77.20;;;;;;5029882;28;20053;-69
2023/07/15 12:18:43;;;;;;;3.15;1.40;;;26.20;75.40;;;;;;5030631;28;20402;-71
2023/07/15 12:21:09;;;;;;;4.50;1.58;;;26.20;75.10;;;;;;5030374;28;20040;-69
2023/07/15 12:23:34;;;;;;;4.10;1.40;;;26.30;75.80;;;;;;5030312;28;20029;-69
2023/07/15 12:26:00;;;;;;;2.60;1.13;;;26.40;74.00;;;;;;5030112;28;20124;-69
2023/07/15 12:28:26;;;;;;;4.05;1.40;;;26.50;74.40;;;;;;5029927;28;20025;-69
2023/07/15 12:30:51;;;;;;;4.22;1.52;;;26.50;74.60;;;;;;5030202;28;20025;-69
2023/07/15 12:33:17;;;;;;;3.90;1.20;;;26.60;74.60;;;;;;5030262;28;20072;-70
2023/07/15 12:35:43;;;;;;;3.47;1.27;;;26.80;73.90;;;;;;5030136;28;20071;-70
2023/07/15 12:38:08;;;;;;;4.43;1.48;;;27.00;71.80;;;;;;5030124;28;20029;-70
2023/07/15 12:40:34;;;;;;;4.10;1.63;;;27.10;73.00;;;;;;5030468;28;20060;-70
2023/07/15 12:43:00;;;;;;;3.28;1.25;;;27.30;72.10;;;;;;5029685;28;20036;-70
2023/07/15 12:45:26;;;;;;;4.75;1.33;;;27.30;72.20;;;;;;5029922;28;20053;-73
2023/07/15 12:47:53;;;;;;;4.43;1.58;;;27.30;72.70;;;;;;5029697;28;20029;-70
2023/07/15 12:50:19;;;;;;;3.13;1.30;;;27.30;71.00;;;;;;5030071;28;20105;-69